Главная страница
METAR-TAF:

METAR-TAF

Аэропорты :

Марибор, Словения

широта: 46-29N, долгота: 015-41E, высота над уровнем моря: 264 м

Текущие метеонаблюдения

Эта сводка был подготовлена 26 минут назад, в 22:00 UTC
Ветер 3 Узел от северный
Температура 7°C
Влажность 93%
Давление 1026 hPa
Видимость 10 км и более

METAR: LJMB 222200Z AUTO 36003KT 9999 NSC 07/06 Q1026

Время: 00:26 (22:26 UTC)

Прогноз

Эта сводка был подготовлена 2 часа и 26 минут назад, в 20:00 UTC
Прогноз действительный с 22-го 21 UTC до 23-го 21 UTC
Ветер 5 Узел от северный
Видимость 10 км и более
Нет облачности ниже 1500 м, и нет кучево-дождевой облачности
изменения
С 23-го 08 UTC до 23-го 11 UTC
Ветер 5 Узел от южный
небольшая облачность на высоте 4000 фута
Отдельные облака на высоте 25000 фута
изменения
С 23-го 17 UTC до 23-го 19 UTC
Ветер 2 Узел переменных направлений

TAF: LJMB 222000Z 2221/2321 36005KT CAVOK BECMG 2308/2311 19005KT FEW040 SCT250 BECMG 2317/2319 VRB02KT

Метеонаблюдения и прогнозы для более 4000 аэропортов (сводки METAR и TAF).

Имеющиеся станции представлены на карте желтыми и красными точками.

Чтобы увидеть название станции, наведите на нее мышь.

Затем щелкните, чтобы увидеть метеонаблюдения и метеопрогнозы.

Управление картой: чтобы увеличить масштаб, щелкните зеленые кнопки с черным крестиком; чтобы уменьшить масштаб, щелкните зеленую кнопку с тире; для просмотра соседних карт щелкайте зеленые стрелки.


METAR-TAF: